createdAt,value
2018-11-13T00:00:58.758Z,0
2018-11-13T00:02:01.455Z,0
2018-11-13T00:03:11.473Z,0
2018-11-13T00:04:17.262Z,0
2018-11-13T00:05:23.432Z,0
2018-11-13T00:06:36.770Z,0
2018-11-13T00:07:43.802Z,0
2018-11-13T00:08:45.818Z,0
2018-11-13T00:09:47.836Z,0
2018-11-13T00:10:49.858Z,0
2018-11-13T00:11:51.896Z,0
2018-11-13T00:12:53.911Z,0
2018-11-13T00:13:56.253Z,0
2018-11-13T00:14:58.674Z,0
2018-11-13T00:16:00.688Z,0
2018-11-13T00:17:02.719Z,0
2018-11-13T00:18:05.026Z,0
2018-11-13T00:19:07.053Z,0
2018-11-13T00:20:09.068Z,0
2018-11-13T00:21:11.381Z,0
2018-11-13T00:22:13.406Z,0
2018-11-13T00:23:15.420Z,0
2018-11-13T00:24:17.456Z,0
2018-11-13T00:25:19.470Z,0
2018-11-13T00:26:21.498Z,0
2018-11-13T00:27:23.562Z,0
2018-11-13T00:28:25.873Z,0
2018-11-13T00:29:28.239Z,0
2018-11-13T00:30:30.195Z,0
2018-11-13T00:31:32.212Z,0
2018-11-13T00:32:34.232Z,0
2018-11-13T00:33:36.268Z,0
2018-11-13T00:34:38.590Z,0
2018-11-13T00:35:40.750Z,0
2018-11-13T00:36:42.784Z,0
2018-11-13T00:37:44.801Z,0
2018-11-13T00:38:46.832Z,0
2018-11-13T00:39:49.147Z,0
2018-11-13T00:40:51.508Z,0
2018-11-13T00:41:53.918Z,0
2018-11-13T00:42:55.952Z,0
2018-11-13T00:43:58.263Z,0
2018-11-13T00:45:00.296Z,0
2018-11-13T00:46:02.445Z,0
2018-11-13T00:47:05.192Z,0
2018-11-13T00:48:07.221Z,0
2018-11-13T00:49:09.621Z,0
2018-11-13T00:50:11.660Z,0
2018-11-13T00:51:13.671Z,0
2018-11-13T00:52:15.981Z,0
2018-11-13T00:53:17.994Z,0
2018-11-13T00:54:20.417Z,0
2018-11-13T00:55:22.440Z,0
2018-11-13T00:56:24.460Z,0
2018-11-13T00:57:26.495Z,0
2018-11-13T00:58:28.504Z,0
2018-11-13T00:59:31.077Z,0
2018-11-13T01:00:34.204Z,0
2018-11-13T01:01:36.238Z,0
2018-11-13T01:02:38.253Z,0
2018-11-13T01:03:40.585Z,0
2018-11-13T01:04:42.893Z,0
2018-11-13T01:05:45.267Z,0
2018-11-13T01:06:47.647Z,0
2018-11-13T01:07:50.173Z,0
2018-11-13T01:08:53.722Z,0
2018-11-13T01:09:55.753Z,0
2018-11-13T01:10:58.160Z,0
2018-11-13T01:12:00.185Z,0
2018-11-13T01:13:02.216Z,0
2018-11-13T01:14:04.230Z,0
2018-11-13T01:15:06.333Z,0
2018-11-13T01:16:10.366Z,0
2018-11-13T01:17:12.397Z,0
2018-11-13T01:18:14.407Z,0
2018-11-13T01:19:16.431Z,0
2018-11-13T01:20:18.446Z,0
2018-11-13T01:21:20.459Z,0
2018-11-13T01:22:22.883Z,0
2018-11-13T01:23:25.305Z,0
2018-11-13T01:24:27.682Z,0
2018-11-13T01:25:29.702Z,0
2018-11-13T01:26:31.741Z,0
2018-11-13T01:27:34.042Z,0
2018-11-13T01:28:36.067Z,0
2018-11-13T01:29:38.089Z,0
2018-11-13T01:30:40.102Z,0
2018-11-13T01:31:42.136Z,0
2018-11-13T01:32:44.158Z,0
2018-11-13T01:33:46.169Z,0
2018-11-13T01:34:48.480Z,0
2018-11-13T01:35:50.510Z,0
2018-11-13T01:36:52.915Z,0
2018-11-13T01:37:54.944Z,0
2018-11-13T01:38:57.305Z,0
2018-11-13T01:39:59.319Z,0
2018-11-13T01:41:01.628Z,0
2018-11-13T01:42:03.658Z,0
2018-11-13T01:43:05.671Z,0
2018-11-13T01:44:07.986Z,0
2018-11-13T01:45:10.010Z,0
2018-11-13T01:46:12.309Z,0
2018-11-13T01:47:14.344Z,0
2018-11-13T01:48:16.658Z,0
2018-11-13T01:49:18.671Z,0
2018-11-13T01:50:20.691Z,0
2018-11-13T01:51:22.726Z,0
2018-11-13T01:52:24.742Z,0
2018-11-13T01:53:26.769Z,0
2018-11-13T01:54:28.841Z,0
2018-11-13T01:55:32.560Z,0
2018-11-13T01:56:34.590Z,0
2018-11-13T01:57:36.608Z,0
2018-11-13T01:58:39.019Z,0
2018-11-13T01:59:41.032Z,0
2018-11-13T02:00:43.062Z,0
2018-11-13T02:01:45.088Z,0
2018-11-13T02:02:47.507Z,0
2018-11-13T02:03:49.805Z,0
2018-11-13T02:04:51.840Z,0
2018-11-13T02:05:54.141Z,0
2018-11-13T02:06:56.829Z,0
2018-11-13T02:07:58.846Z,0
2018-11-13T02:09:00.878Z,0
2018-11-13T02:10:02.899Z,0
2018-11-13T02:11:04.925Z,0
2018-11-13T02:12:06.953Z,0
2018-11-13T02:13:09.256Z,0
2018-11-13T02:14:11.946Z,0
2018-11-13T02:15:13.975Z,0
2018-11-13T02:16:15.988Z,0
2018-11-13T02:17:18.012Z,0
2018-11-13T02:18:20.036Z,0
2018-11-13T02:19:22.056Z,0
2018-11-13T02:20:24.091Z,0
2018-11-13T02:21:26.387Z,0
2018-11-13T02:22:28.404Z,0
2018-11-13T02:23:30.419Z,0
2018-11-13T02:24:32.455Z,0
2018-11-13T02:25:34.860Z,0
2018-11-13T02:26:36.893Z,0
2018-11-13T02:27:38.921Z,0
2018-11-13T02:28:40.936Z,0
2018-11-13T02:29:42.969Z,0
2018-11-13T02:30:45.370Z,0
2018-11-13T02:31:48.077Z,0
2018-11-13T02:32:50.083Z,0
2018-11-13T02:33:52.120Z,0
2018-11-13T02:34:54.444Z,0
2018-11-13T02:35:56.463Z,0
2018-11-13T02:36:58.496Z,0
2018-11-13T02:38:00.899Z,0
2018-11-13T02:39:03.223Z,0
2018-11-13T02:40:05.916Z,0
2018-11-13T02:41:07.922Z,0
2018-11-13T02:42:09.947Z,0
2018-11-13T02:43:11.976Z,0
2018-11-13T02:44:14.688Z,0
2018-11-13T02:45:16.715Z,0
2018-11-13T02:46:18.726Z,0
2018-11-13T02:47:20.755Z,0
2018-11-13T02:48:24.960Z,0
2018-11-13T02:49:27.742Z,0
2018-11-13T02:50:29.800Z,0
2018-11-13T02:51:31.832Z,0
2018-11-13T02:52:34.122Z,0
2018-11-13T02:53:36.158Z,0
2018-11-13T02:54:38.493Z,0
2018-11-13T02:55:40.511Z,0
2018-11-13T02:56:42.810Z,0
2018-11-13T02:57:45.233Z,0
2018-11-13T02:58:48.260Z,0
2018-11-13T02:59:50.288Z,0
2018-11-13T03:00:52.315Z,0
2018-11-13T03:01:54.326Z,0
2018-11-13T03:02:56.361Z,0
2018-11-13T03:03:58.377Z,0
2018-11-13T03:05:00.690Z,0
2018-11-13T03:06:02.704Z,0
2018-11-13T03:07:05.037Z,0
2018-11-13T03:08:07.058Z,0
2018-11-13T03:09:09.644Z,0
2018-11-13T03:10:11.676Z,0
2018-11-13T03:11:13.691Z,0
2018-11-13T03:12:15.721Z,0
2018-11-13T03:13:17.754Z,0
2018-11-13T03:14:19.787Z,0
2018-11-13T03:15:22.092Z,0
2018-11-13T03:16:24.124Z,0
2018-11-13T03:17:26.549Z,0
2018-11-13T03:18:28.577Z,0
2018-11-13T03:19:31.175Z,0
2018-11-13T03:20:33.871Z,0
2018-11-13T03:21:36.183Z,0
2018-11-13T03:22:38.204Z,0
2018-11-13T03:23:40.517Z,0
2018-11-13T03:24:42.542Z,0
2018-11-13T03:25:44.558Z,0
2018-11-13T03:26:46.878Z,0
2018-11-13T03:27:48.900Z,0
2018-11-13T03:28:50.916Z,0
2018-11-13T03:29:53.218Z,0
2018-11-13T03:30:55.348Z,0
2018-11-13T03:31:58.079Z,0
2018-11-13T03:33:00.386Z,0
2018-11-13T03:34:02.727Z,0
2018-11-13T03:35:05.325Z,0
2018-11-13T03:36:07.923Z,0
2018-11-13T03:37:11.017Z,0
2018-11-13T03:38:13.329Z,0
2018-11-13T03:39:15.646Z,0
2018-11-13T03:40:17.680Z,0
2018-11-13T03:41:20.283Z,0
2018-11-13T03:42:22.607Z,0
2018-11-13T03:43:24.640Z,0
2018-11-13T03:44:26.652Z,0
2018-11-13T03:45:28.960Z,0
2018-11-13T03:46:30.990Z,0
2018-11-13T03:47:33.017Z,0
2018-11-13T03:48:35.041Z,0
2018-11-13T03:49:37.063Z,0
2018-11-13T03:50:39.082Z,0
2018-11-13T03:51:41.384Z,0
2018-11-13T03:52:43.424Z,0
2018-11-13T03:53:46.041Z,0
2018-11-13T03:54:48.058Z,0
2018-11-13T03:55:50.092Z,0
2018-11-13T03:56:52.397Z,0
2018-11-13T03:57:54.415Z,0
2018-11-13T03:58:56.442Z,0
2018-11-13T03:59:58.757Z,0
2018-11-13T04:01:00.793Z,0
2018-11-13T04:02:03.120Z,0
2018-11-13T04:03:05.471Z,0
2018-11-13T04:04:07.776Z,0
2018-11-13T04:05:11.055Z,0
2018-11-13T04:06:13.074Z,0
2018-11-13T04:07:15.370Z,0
2018-11-13T04:08:17.696Z,0
2018-11-13T04:09:20.381Z,0
2018-11-13T04:10:22.418Z,0
2018-11-13T04:11:24.729Z,0
2018-11-13T04:12:27.339Z,0
2018-11-13T04:13:29.649Z,0
2018-11-13T04:14:31.955Z,0
2018-11-13T04:15:34.282Z,0
2018-11-13T04:16:36.296Z,0
2018-11-13T04:17:38.612Z,0
2018-11-13T04:18:40.915Z,0
2018-11-13T04:19:42.935Z,0
2018-11-13T04:20:45.016Z,0
2018-11-13T04:21:46.983Z,0
2018-11-13T04:22:49.003Z,0
2018-11-13T04:23:51.909Z,0
2018-11-13T04:24:53.938Z,0
2018-11-13T04:25:55.950Z,0
2018-11-13T04:26:58.263Z,0
2018-11-13T04:28:00.290Z,0
2018-11-13T04:29:02.605Z,0
2018-11-13T04:30:04.628Z,0
2018-11-13T04:31:06.937Z,0
2018-11-13T04:32:08.967Z,0
2018-11-13T04:33:10.987Z,0
2018-11-13T04:34:13.008Z,0
2018-11-13T04:35:15.034Z,0
2018-11-13T04:36:17.063Z,0
2018-11-13T04:37:19.765Z,0
2018-11-13T04:38:21.795Z,0
2018-11-13T04:39:24.200Z,0
2018-11-13T04:40:26.218Z,0
2018-11-13T04:41:28.253Z,0
2018-11-13T04:42:30.273Z,0
2018-11-13T04:43:32.302Z,0
2018-11-13T04:44:34.319Z,0
2018-11-13T04:45:37.341Z,0
2018-11-13T04:46:39.348Z,0
2018-11-13T04:47:41.655Z,0
2018-11-13T04:48:43.977Z,0
2018-11-13T04:49:45.991Z,0
2018-11-13T04:50:48.328Z,0
2018-11-13T04:51:50.345Z,0
2018-11-13T04:52:52.936Z,0
2018-11-13T04:53:55.243Z,0
2018-11-13T04:54:57.555Z,0
2018-11-13T04:55:59.583Z,0
2018-11-13T04:57:01.915Z,0
2018-11-13T04:58:04.235Z,0
2018-11-13T04:59:06.249Z,0
2018-11-13T05:00:08.945Z,0
2018-11-13T05:01:10.969Z,0
2018-11-13T05:02:13.563Z,0
2018-11-13T05:03:15.878Z,0
2018-11-13T05:04:17.899Z,0
2018-11-13T05:05:19.915Z,0
2018-11-13T05:06:22.643Z,0
2018-11-13T05:07:24.660Z,0
2018-11-13T05:08:26.679Z,0
2018-11-13T05:09:28.696Z,0
2018-11-13T05:10:30.717Z,0
2018-11-13T05:11:32.748Z,0
2018-11-13T05:12:34.766Z,0
2018-11-13T05:13:36.800Z,0
2018-11-13T05:14:39.431Z,0
2018-11-13T05:15:41.825Z,0
2018-11-13T05:16:43.848Z,0
2018-11-13T05:17:46.150Z,0
2018-11-13T05:18:48.184Z,0
2018-11-13T05:19:50.581Z,0
2018-11-13T05:20:52.605Z,0
2018-11-13T05:21:54.918Z,0
2018-11-13T05:22:56.952Z,0
2018-11-13T05:23:59.381Z,0
2018-11-13T05:25:01.398Z,0
2018-11-13T05:26:03.424Z,0
2018-11-13T05:27:05.442Z,0
2018-11-13T05:28:07.473Z,0
2018-11-13T05:29:09.494Z,0
2018-11-13T05:30:11.526Z,0
2018-11-13T05:31:13.557Z,0
2018-11-13T05:32:15.568Z,0
2018-11-13T05:33:17.591Z,0
2018-11-13T05:34:19.907Z,0
2018-11-13T05:35:21.918Z,0
2018-11-13T05:36:23.945Z,0
2018-11-13T05:37:26.251Z,0
2018-11-13T05:38:28.552Z,0
2018-11-13T05:39:30.870Z,0
2018-11-13T05:40:32.893Z,0
2018-11-13T05:41:35.240Z,0
2018-11-13T05:42:37.209Z,0
2018-11-13T05:43:39.241Z,0
2018-11-13T05:44:41.256Z,0
2018-11-13T05:45:43.568Z,0
2018-11-13T05:46:45.891Z,0
2018-11-13T05:47:47.924Z,0
2018-11-13T05:48:49.926Z,0
2018-11-13T05:49:51.957Z,0
2018-11-13T05:50:54.257Z,0
2018-11-13T05:51:56.291Z,0
2018-11-13T05:52:58.308Z,0
2018-11-13T05:54:00.329Z,0
2018-11-13T05:55:02.358Z,0
2018-11-13T05:56:04.404Z,0
2018-11-13T05:57:06.713Z,0
2018-11-13T05:58:08.730Z,0
2018-11-13T05:59:10.749Z,0
2018-11-13T06:00:13.049Z,0
2018-11-13T06:01:15.080Z,0
2018-11-13T06:02:17.103Z,0
2018-11-13T06:03:19.416Z,0
2018-11-13T06:04:21.445Z,0
2018-11-13T06:05:23.459Z,0
2018-11-13T06:06:25.488Z,0
2018-11-13T06:07:27.513Z,0
2018-11-13T06:08:29.553Z,4
2018-11-13T06:09:32.433Z,4
2018-11-13T06:10:34.450Z,4
2018-11-13T06:11:36.465Z,4
2018-11-13T06:12:38.542Z,4
2018-11-13T06:13:40.521Z,8
2018-11-13T06:14:42.552Z,4
2018-11-13T06:15:44.849Z,8
2018-11-13T06:16:47.170Z,8
2018-11-13T06:17:49.187Z,12
2018-11-13T06:18:51.215Z,12
2018-11-13T06:19:53.242Z,16
2018-11-13T06:20:55.553Z,16
2018-11-13T06:21:57.594Z,20
2018-11-13T06:22:59.923Z,20
2018-11-13T06:24:02.415Z,24
2018-11-13T06:25:04.708Z,28
2018-11-13T06:26:06.734Z,28
2018-11-13T06:27:08.765Z,32
2018-11-13T06:28:11.068Z,40
2018-11-13T06:29:13.101Z,44
2018-11-13T06:30:15.502Z,44
2018-11-13T06:31:17.528Z,48
2018-11-13T06:32:19.845Z,52
2018-11-13T06:33:21.875Z,56
2018-11-13T06:34:24.459Z,60
2018-11-13T06:35:26.483Z,68
2018-11-13T06:36:28.782Z,72
2018-11-13T06:37:31.083Z,76
2018-11-13T06:38:33.138Z,80
2018-11-13T06:39:35.133Z,84
2018-11-13T06:40:37.153Z,88
2018-11-13T06:41:39.186Z,96
2018-11-13T06:42:41.204Z,108
2018-11-13T06:43:43.229Z,124
2018-11-13T06:44:45.255Z,140
2018-11-13T06:45:47.267Z,156
2018-11-13T06:46:49.572Z,172
2018-11-13T06:47:51.598Z,188
2018-11-13T06:48:53.962Z,208
2018-11-13T06:49:56.293Z,224
2018-11-13T06:50:58.604Z,244
2018-11-13T06:52:00.620Z,256
2018-11-13T06:53:02.928Z,272
2018-11-13T06:54:05.251Z,280
2018-11-13T06:55:07.265Z,288
2018-11-13T06:56:09.293Z,316
2018-11-13T06:57:11.312Z,340
2018-11-13T06:58:13.729Z,344
2018-11-13T06:59:15.744Z,356
2018-11-13T07:00:18.072Z,364
2018-11-13T07:01:20.481Z,348
2018-11-13T07:02:22.776Z,332
2018-11-13T07:03:25.131Z,336
2018-11-13T07:04:27.159Z,324
2018-11-13T07:05:29.574Z,316
2018-11-13T07:06:31.605Z,328
2018-11-13T07:07:33.624Z,344
2018-11-13T07:08:35.645Z,364
2018-11-13T07:09:38.331Z,396
2018-11-13T07:10:40.396Z,440
2018-11-13T07:11:42.942Z,472
2018-11-13T07:12:44.955Z,508
2018-11-13T07:13:47.360Z,544
2018-11-13T07:14:49.395Z,568
2018-11-13T07:15:51.695Z,568
2018-11-13T07:16:53.719Z,560
2018-11-13T07:17:55.749Z,552
2018-11-13T07:18:57.764Z,548
2018-11-13T07:19:59.790Z,560
2018-11-13T07:21:02.124Z,576
2018-11-13T07:22:04.155Z,600
2018-11-13T07:23:06.167Z,616
2018-11-13T07:24:08.197Z,624
2018-11-13T07:25:10.617Z,636
2018-11-13T07:26:12.616Z,644
2018-11-13T07:27:14.692Z,640
2018-11-13T07:28:17.409Z,640
2018-11-13T07:29:19.439Z,652
2018-11-13T07:30:21.756Z,680
2018-11-13T07:31:23.866Z,688
2018-11-13T07:32:25.808Z,708
2018-11-13T07:33:27.833Z,724
2018-11-13T07:34:29.960Z,744
2018-11-13T07:35:32.399Z,756
2018-11-13T07:36:34.730Z,784
2018-11-13T07:37:37.342Z,796
2018-11-13T07:38:39.359Z,832
2018-11-13T07:39:41.375Z,888
2018-11-13T07:40:43.401Z,924
2018-11-13T07:41:45.424Z,976
2018-11-13T07:42:47.454Z,1044
2018-11-13T07:43:49.865Z,1100
2018-11-13T07:44:51.870Z,1152
2018-11-13T07:45:53.899Z,1192
2018-11-13T07:46:56.293Z,1236
2018-11-13T07:47:58.286Z,1228
2018-11-13T07:49:00.814Z,1196
2018-11-13T07:50:02.833Z,1172
2018-11-13T07:51:04.854Z,1172
2018-11-13T07:52:06.881Z,1164
2018-11-13T07:53:08.900Z,1104
2018-11-13T07:54:10.914Z,1064
2018-11-13T07:55:13.289Z,1108
2018-11-13T07:56:15.322Z,1092
2018-11-13T07:57:17.344Z,1012
2018-11-13T07:58:19.960Z,964
2018-11-13T07:59:21.986Z,968
2018-11-13T08:00:24.008Z,964
2018-11-13T08:01:26.327Z,952
2018-11-13T08:02:28.727Z,980
2018-11-13T08:03:30.798Z,1020
2018-11-13T08:04:32.760Z,1096
2018-11-13T08:05:34.809Z,1208
2018-11-13T08:06:36.900Z,1348
2018-11-13T08:07:39.677Z,1500
2018-11-13T08:08:41.710Z,1636
2018-11-13T08:09:44.322Z,1724
2018-11-13T08:10:46.627Z,1792
2018-11-13T08:11:48.962Z,1892
2018-11-13T08:12:51.458Z,1972
2018-11-13T08:13:53.297Z,2052
2018-11-13T08:14:55.316Z,2152
2018-11-13T08:15:57.329Z,2260
2018-11-13T08:16:59.746Z,2296
2018-11-13T08:18:02.490Z,2280
2018-11-13T08:19:04.510Z,2356
2018-11-13T08:20:06.536Z,2424
2018-11-13T08:21:08.870Z,2412
2018-11-13T08:22:10.891Z,2328
2018-11-13T08:23:13.336Z,2224
2018-11-13T08:24:15.355Z,2180
2018-11-13T08:25:17.464Z,2196
2018-11-13T08:26:20.659Z,2312
2018-11-13T08:27:23.084Z,2432
2018-11-13T08:28:25.204Z,2432
2018-11-13T08:29:27.666Z,2456
2018-11-13T08:30:29.607Z,2576
2018-11-13T08:31:31.666Z,2704
2018-11-13T08:32:34.059Z,2856
2018-11-13T08:33:36.071Z,3024
2018-11-13T08:34:38.444Z,3292
2018-11-13T08:35:40.440Z,3584
2018-11-13T08:36:42.432Z,3684
2018-11-13T08:37:44.447Z,3600
2018-11-13T08:38:46.863Z,3308
2018-11-13T08:39:48.883Z,2944
2018-11-13T08:40:50.904Z,2628
2018-11-13T08:41:52.948Z,2312
2018-11-13T08:42:54.963Z,2220
2018-11-13T08:43:57.021Z,2248
2018-11-13T08:44:59.025Z,2256
2018-11-13T08:46:01.055Z,2160
2018-11-13T08:47:03.375Z,2044
2018-11-13T08:48:05.400Z,2192
2018-11-13T08:49:07.414Z,2612
2018-11-13T08:50:09.743Z,3176
2018-11-13T08:51:11.758Z,3620
2018-11-13T08:52:14.067Z,3580
2018-11-13T08:53:16.086Z,3476
2018-11-13T08:54:18.118Z,3624
2018-11-13T08:55:20.137Z,3864
2018-11-13T08:56:22.477Z,3840
2018-11-13T08:57:24.504Z,3788
2018-11-13T08:58:26.550Z,3904
2018-11-13T08:59:28.563Z,3892
2018-11-13T09:00:30.583Z,3744
2018-11-13T09:01:32.611Z,3480
2018-11-13T09:02:35.010Z,3204
2018-11-13T09:03:37.035Z,2944
2018-11-13T09:04:39.057Z,2800
2018-11-13T09:05:41.072Z,2904
2018-11-13T09:06:43.106Z,3208
2018-11-13T09:07:45.403Z,3596
2018-11-13T09:08:47.432Z,4072
2018-11-13T09:09:49.450Z,4584
2018-11-13T09:10:51.482Z,4744
2018-11-13T09:11:53.649Z,4740
2018-11-13T09:12:55.520Z,4976
2018-11-13T09:13:57.551Z,5252
2018-11-13T09:14:59.852Z,5452
2018-11-13T09:16:02.462Z,5840
2018-11-13T09:17:04.481Z,5928
2018-11-13T09:18:06.587Z,6188
2018-11-13T09:19:08.672Z,6468
2018-11-13T09:20:11.104Z,6920
2018-11-13T09:21:13.129Z,6932
2018-11-13T09:22:15.554Z,6728
2018-11-13T09:23:17.961Z,7048
2018-11-13T09:24:20.005Z,7580
2018-11-13T09:25:22.334Z,8132
2018-11-13T09:26:24.362Z,8432
2018-11-13T09:27:26.659Z,8792
2018-11-13T09:28:28.694Z,9312
2018-11-13T09:29:30.721Z,10344
2018-11-13T09:30:33.148Z,10400
2018-11-13T09:31:35.124Z,10224
2018-11-13T09:32:37.488Z,10768
2018-11-13T09:33:39.526Z,10808
2018-11-13T09:34:42.828Z,11696
2018-11-13T09:35:44.846Z,12728
2018-11-13T09:36:46.876Z,12904
2018-11-13T09:37:48.896Z,14236
2018-11-13T09:38:50.918Z,14308
2018-11-13T09:39:52.960Z,10516
2018-11-13T09:40:54.969Z,9788
2018-11-13T09:41:56.993Z,10932
2018-11-13T09:42:59.005Z,12432
2018-11-13T09:44:01.039Z,13236
2018-11-13T09:45:03.559Z,12220
2018-11-13T09:46:05.580Z,10740
2018-11-13T09:47:09.447Z,11040
2018-11-13T09:48:11.742Z,14512
2018-11-13T09:49:13.781Z,14120
2018-11-13T09:50:15.799Z,11336
2018-11-13T09:51:18.103Z,8952
2018-11-13T09:52:20.123Z,11388
2018-11-13T09:53:22.182Z,12824
2018-11-13T09:54:24.181Z,12340
2018-11-13T09:55:26.573Z,10096
2018-11-13T09:56:28.582Z,8792
2018-11-13T09:57:30.558Z,8448
2018-11-13T09:58:33.326Z,8164
2018-11-13T09:59:35.315Z,8056
2018-11-13T10:00:37.561Z,8416
2018-11-13T10:01:40.411Z,9060
2018-11-13T10:02:42.848Z,8988
2018-11-13T10:03:44.727Z,8600
2018-11-13T10:04:46.952Z,8676
2018-11-13T10:05:48.274Z,8496
2018-11-13T10:06:50.657Z,8108
2018-11-13T10:07:53.400Z,7908
2018-11-13T10:08:55.435Z,8428
2018-11-13T10:09:57.451Z,9560
2018-11-13T10:10:59.773Z,9924
2018-11-13T10:12:01.801Z,9608
2018-11-13T10:13:03.835Z,9516
2018-11-13T10:14:05.850Z,9388
2018-11-13T10:15:07.883Z,8780
2018-11-13T10:16:10.187Z,8272
2018-11-13T10:17:12.300Z,8304
2018-11-13T10:18:14.422Z,8596
2018-11-13T10:19:16.771Z,9104
2018-11-13T10:20:18.808Z,9332
2018-11-13T10:21:21.105Z,9056
2018-11-13T10:22:23.159Z,8648
2018-11-13T10:23:25.569Z,8300
2018-11-13T10:24:27.871Z,8836
2018-11-13T10:25:29.891Z,10508
2018-11-13T10:26:32.393Z,12224
2018-11-13T10:27:34.251Z,12812
2018-11-13T10:28:36.262Z,15180
2018-11-13T10:29:38.296Z,16548
2018-11-13T10:30:40.313Z,16856
2018-11-13T10:31:42.624Z,16956
2018-11-13T10:32:45.430Z,17776
2018-11-13T10:33:48.158Z,16096
2018-11-13T10:34:50.191Z,14536
2018-11-13T10:35:52.508Z,12884
2018-11-13T10:36:54.524Z,11924
2018-11-13T10:37:56.558Z,11988
2018-11-13T10:38:58.577Z,12400
2018-11-13T10:40:00.596Z,11664
2018-11-13T10:41:03.791Z,10580
2018-11-13T10:42:05.719Z,9960
2018-11-13T10:43:07.736Z,9752
2018-11-13T10:44:10.053Z,10072
2018-11-13T10:45:12.359Z,11276
2018-11-13T10:46:14.684Z,14420
2018-11-13T10:47:16.711Z,15508
2018-11-13T10:48:18.734Z,16932
2018-11-13T10:49:21.050Z,22336
2018-11-13T10:50:23.167Z,21376
2018-11-13T10:51:26.083Z,22368
2018-11-13T10:52:28.089Z,21280
2018-11-13T10:53:30.121Z,22336
2018-11-13T10:54:32.134Z,12148
2018-11-13T10:55:34.168Z,18816
2018-11-13T10:56:36.237Z,12572
2018-11-13T10:57:38.213Z,12460
2018-11-13T10:58:40.820Z,14144
2018-11-13T10:59:42.850Z,13932
2018-11-13T11:00:45.259Z,13832
2018-11-13T11:01:47.293Z,14416
2018-11-13T11:02:49.805Z,47296
2018-11-13T11:03:51.730Z,12520
2018-11-13T11:04:54.148Z,9120
2018-11-13T11:05:56.570Z,7188
2018-11-13T11:06:58.586Z,7480
2018-11-13T11:08:00.615Z,8400
2018-11-13T11:09:02.640Z,9064
2018-11-13T11:10:05.051Z,9464
2018-11-13T11:11:07.379Z,11796
2018-11-13T11:12:09.706Z,13480
2018-11-13T11:13:11.862Z,19520
2018-11-13T11:14:15.051Z,15060
2018-11-13T11:15:17.103Z,19264
2018-11-13T11:16:19.404Z,18080
2018-11-13T11:17:21.432Z,16060
2018-11-13T11:18:23.464Z,15428
2018-11-13T11:19:25.598Z,16288
2018-11-13T11:20:28.405Z,19072
2018-11-13T11:21:30.429Z,20288
2018-11-13T11:22:33.089Z,18752
2018-11-13T11:23:35.277Z,19424
2018-11-13T11:24:37.100Z,18272
2018-11-13T11:25:39.126Z,19456
2018-11-13T11:26:41.144Z,17852
2018-11-13T11:27:43.238Z,17716
2018-11-13T11:28:45.196Z,17624
2018-11-13T11:29:47.223Z,14728
2018-11-13T11:30:49.315Z,12032
2018-11-13T11:31:52.078Z,11360
2018-11-13T11:32:54.098Z,11204
2018-11-13T11:33:56.124Z,10516
2018-11-13T11:34:58.144Z,9792
2018-11-13T11:36:00.167Z,8148
2018-11-13T11:37:02.207Z,8660
2018-11-13T11:38:04.230Z,7452
2018-11-13T11:39:06.333Z,9012
2018-11-13T11:40:08.296Z,12488
2018-11-13T11:41:10.320Z,13420
2018-11-13T11:42:12.636Z,14036
2018-11-13T11:43:14.673Z,16804
2018-11-13T11:44:17.388Z,12144
2018-11-13T11:45:19.392Z,8716
2018-11-13T11:46:21.423Z,7436
2018-11-13T11:47:23.463Z,8340
2018-11-13T11:48:25.763Z,7680
2018-11-13T11:49:27.795Z,6880
2018-11-13T11:50:29.818Z,5672
2018-11-13T11:51:32.127Z,5528
2018-11-13T11:52:34.168Z,6948
2018-11-13T11:53:36.498Z,9688
2018-11-13T11:54:39.168Z,9044
2018-11-13T11:55:41.192Z,6120
2018-11-13T11:56:43.229Z,5692
2018-11-13T11:57:45.539Z,5032
2018-11-13T11:58:47.565Z,4608
2018-11-13T11:59:49.594Z,4140
2018-11-13T12:00:52.053Z,4072
2018-11-13T12:01:54.039Z,4228
2018-11-13T12:02:56.059Z,4512
2018-11-13T12:03:58.367Z,4420
2018-11-13T12:05:00.386Z,5356
2018-11-13T12:06:02.418Z,8948
2018-11-13T12:07:04.442Z,7336
2018-11-13T12:08:06.465Z,7740
2018-11-13T12:09:08.495Z,6960
2018-11-13T12:10:11.390Z,4824
2018-11-13T12:11:13.412Z,3416
2018-11-13T12:12:15.482Z,2708
2018-11-13T12:13:17.474Z,3208
2018-11-13T12:14:20.069Z,2836
2018-11-13T12:15:22.097Z,4068
2018-11-13T12:16:24.803Z,2552
2018-11-13T12:17:27.100Z,3268
2018-11-13T12:18:29.135Z,2348
2018-11-13T12:19:31.745Z,2668
2018-11-13T12:20:33.636Z,4284
2018-11-13T12:21:35.649Z,9656
2018-11-13T12:22:38.106Z,16856
2018-11-13T12:23:40.121Z,13084
2018-11-13T12:24:42.142Z,11588
2018-11-13T12:25:44.263Z,9752
2018-11-13T12:26:46.207Z,8872
2018-11-13T12:27:48.241Z,10520
2018-11-13T12:28:50.268Z,9560
2018-11-13T12:29:52.632Z,9156
2018-11-13T12:30:54.654Z,10856
2018-11-13T12:31:56.680Z,12884
2018-11-13T12:32:58.740Z,11132
2018-11-13T12:34:00.753Z,13368
2018-11-13T12:35:02.791Z,12404
2018-11-13T12:36:05.011Z,9468
2018-11-13T12:37:07.030Z,7484
2018-11-13T12:38:09.051Z,5524
2018-11-13T12:39:11.371Z,6956
2018-11-13T12:40:13.399Z,4476
2018-11-13T12:41:15.434Z,3936
2018-11-13T12:42:17.464Z,3524
2018-11-13T12:43:19.765Z,4660
2018-11-13T12:44:22.387Z,4964
2018-11-13T12:45:24.411Z,5056
2018-11-13T12:46:26.509Z,4556
2018-11-13T12:47:28.885Z,5044
2018-11-13T12:48:30.909Z,5788
2018-11-13T12:49:32.945Z,6364
2018-11-13T12:50:34.959Z,7676
2018-11-13T12:51:37.387Z,7164
2018-11-13T12:52:39.413Z,6608
2018-11-13T12:53:41.829Z,5796
2018-11-13T12:54:43.844Z,5344
2018-11-13T12:55:46.290Z,4628
2018-11-13T12:56:48.668Z,3680
2018-11-13T12:57:50.690Z,3504
2018-11-13T12:58:52.725Z,3560
2018-11-13T12:59:54.740Z,3272
2018-11-13T13:00:56.773Z,3300
2018-11-13T13:01:59.200Z,4172
2018-11-13T13:03:01.916Z,4836
2018-11-13T13:04:04.217Z,5832
2018-11-13T13:05:06.629Z,6020
2018-11-13T13:06:08.666Z,7492
2018-11-13T13:07:10.961Z,5604
2018-11-13T13:08:12.997Z,5772
2018-11-13T13:09:15.019Z,5948
2018-11-13T13:10:17.039Z,5364
2018-11-13T13:11:19.361Z,5028
2018-11-13T13:12:22.355Z,5360
2018-11-13T13:13:24.380Z,5960
2018-11-13T13:14:26.411Z,7988
2018-11-13T13:15:28.446Z,8688
2018-11-13T13:16:30.463Z,6816
2018-11-13T13:17:32.499Z,7072
2018-11-13T13:18:34.530Z,7172
2018-11-13T13:19:36.543Z,7752
2018-11-13T13:20:38.574Z,7552
2018-11-13T13:21:40.643Z,7216
2018-11-13T13:22:43.456Z,7232
2018-11-13T13:23:45.471Z,7128
2018-11-13T13:24:47.814Z,8400
2018-11-13T13:25:50.216Z,9808
2018-11-13T13:26:53.481Z,10216
2018-11-13T13:27:55.497Z,8704
2018-11-13T13:28:57.541Z,7324
2018-11-13T13:29:59.607Z,6888
2018-11-13T13:31:01.923Z,7140
2018-11-13T13:32:04.246Z,7440
2018-11-13T13:33:06.262Z,7912
2018-11-13T13:34:08.294Z,8668
2018-11-13T13:35:10.606Z,9012
2018-11-13T13:36:12.639Z,9060
2018-11-13T13:37:14.657Z,9076
2018-11-13T13:38:17.359Z,8880
2018-11-13T13:39:19.779Z,8948
2018-11-13T13:40:22.081Z,9120
2018-11-13T13:41:24.117Z,8144
2018-11-13T13:42:26.140Z,7468
2018-11-13T13:43:28.165Z,7220
2018-11-13T13:44:30.185Z,7044
2018-11-13T13:45:32.217Z,7408
2018-11-13T13:46:34.286Z,6688
2018-11-13T13:47:36.279Z,4840
2018-11-13T13:48:38.317Z,4260
2018-11-13T13:49:40.618Z,3828
2018-11-13T13:50:42.658Z,3188
2018-11-13T13:51:44.682Z,3180
2018-11-13T13:52:46.702Z,3580
2018-11-13T13:53:48.905Z,3672
2018-11-13T13:54:51.598Z,3492
2018-11-13T13:55:53.618Z,3776
2018-11-13T13:56:55.656Z,4180
2018-11-13T13:57:57.681Z,4392
2018-11-13T13:58:59.703Z,4592
2018-11-13T14:00:01.973Z,4520
2018-11-13T14:01:05.130Z,4064
2018-11-13T14:02:07.131Z,3416
2018-11-13T14:03:09.167Z,2932
2018-11-13T14:04:11.198Z,2228
2018-11-13T14:05:13.512Z,2100
2018-11-13T14:06:15.549Z,1848
2018-11-13T14:07:17.572Z,1620
2018-11-13T14:08:19.886Z,1824
2018-11-13T14:09:22.369Z,2332
2018-11-13T14:10:24.848Z,3196
2018-11-13T14:11:26.872Z,3920
2018-11-13T14:12:28.896Z,4004
2018-11-13T14:13:31.219Z,3860
2018-11-13T14:14:33.235Z,3828
2018-11-13T14:15:35.734Z,3784
2018-11-13T14:16:38.183Z,3672
2018-11-13T14:17:40.509Z,3548
2018-11-13T14:18:42.532Z,3436
2018-11-13T14:19:44.560Z,3356
2018-11-13T14:20:46.663Z,3264
2018-11-13T14:21:49.296Z,3156
2018-11-13T14:22:51.330Z,3004
2018-11-13T14:23:53.355Z,2808
2018-11-13T14:24:55.380Z,2660
2018-11-13T14:25:57.416Z,2640
2018-11-13T14:26:59.729Z,2768